Time;durP1;ratioP1;P1;durP2;ratioP2;P2;SDS_P1;SDS_P2;PMS_P1;PMS_P2;Temp;Humidity;BMP_temperature;BMP_pressure;BME280_temperature;BME280_humidity;BME280_pressure;Samples;Min_cycle;Max_cycle;Signal;HPM_P1;HPM_P2
2023/12/16 00:01:33;;;;;;;7.90;3.65;;;;;;;7.05;100.00;102937.91;5032324;28;20205;-65
2023/12/16 00:04:02;;;;;;;5.10;3.40;;;;;;;7.10;100.00;102920.41;5029864;28;20193;-65
2023/12/16 00:06:32;;;;;;;4.32;4.03;;;;;;;7.17;100.00;102918.88;5021748;28;20212;-65
2023/12/16 00:09:01;;;;;;;6.80;4.85;;;;;;;7.13;100.00;102920.13;5036436;28;20221;-66
2023/12/16 00:11:30;;;;;;;10.05;7.28;;;;;;;7.07;100.00;102911.72;5025748;28;20538;-63
2023/12/16 00:13:59;;;;;;;6.30;4.75;;;;;;;7.03;100.00;102913.81;5029303;28;20612;-63
2023/12/16 00:16:28;;;;;;;8.80;5.25;;;;;;;7.10;100.00;102925.78;5022028;28;20260;-65
2023/12/16 00:18:57;;;;;;;4.75;2.70;;;;;;;7.00;100.00;102932.94;5025707;28;20190;-64
2023/12/16 00:21:26;;;;;;;5.13;2.83;;;;;;;6.85;100.00;102936.91;5026069;28;20678;-65
2023/12/16 00:23:56;;;;;;;6.55;4.38;;;;;;;6.99;100.00;102933.91;5035319;28;20192;-63
2023/12/16 00:26:25;;;;;;;3.33;2.55;;;;;;;7.01;100.00;102931.94;5031814;28;20181;-65
2023/12/16 00:28:53;;;;;;;3.47;2.45;;;;;;;7.07;100.00;102933.28;5035677;28;20272;-62
2023/12/16 00:31:22;;;;;;;9.68;5.68;;;;;;;6.97;100.00;102936.72;5028402;28;20631;-63
2023/12/16 00:33:51;;;;;;;3.50;2.05;;;;;;;6.99;100.00;102928.53;5026234;28;20244;-64
2023/12/16 00:36:20;;;;;;;6.35;4.18;;;;;;;7.04;100.00;102926.28;5035533;28;20200;-64
2023/12/16 00:38:49;;;;;;;2.33;2.10;;;;;;;7.10;100.00;102930.31;5032038;28;20200;-64
2023/12/16 00:41:19;;;;;;;5.30;3.15;;;;;;;7.15;100.00;102922.69;5019340;28;20253;-63
2023/12/16 00:43:48;;;;;;;4.35;3.95;;;;;;;7.09;100.00;102917.81;5033523;28;20201;-66
2023/12/16 00:46:17;;;;;;;7.60;4.68;;;;;;;7.12;100.00;102909.47;5026838;28;20267;-64
2023/12/16 00:48:46;;;;;;;2.90;2.45;;;;;;;7.10;100.00;102917.69;5028932;28;20223;-65
2023/12/16 00:51:15;;;;;;;3.42;3.15;;;;;;;7.14;100.00;102918.28;5031824;28;20246;-63
2023/12/16 00:53:44;;;;;;;13.13;6.43;;;;;;;7.08;100.00;102925.03;5034264;28;20210;-61
2023/12/16 00:56:13;;;;;;;5.18;2.88;;;;;;;6.98;100.00;102926.81;5022951;28;20210;-66
2023/12/16 00:58:43;;;;;;;6.55;4.45;;;;;;;6.94;100.00;102933.44;5027157;28;20252;-64
2023/12/16 01:01:15;;;;;;;4.43;3.40;;;;;;;6.89;100.00;102932.97;5022708;28;20190;-64
2023/12/16 01:03:44;;;;;;;7.72;4.10;;;;;;;6.95;100.00;102938.69;5028861;28;20189;-62
2023/12/16 01:06:13;;;;;;;4.47;4.18;;;;;;;6.97;100.00;102941.28;5035098;28;20241;-66
2023/12/16 01:08:42;;;;;;;5.15;3.55;;;;;;;6.95;100.00;102943.22;5022099;28;20304;-65
2023/12/16 01:11:12;;;;;;;4.53;4.03;;;;;;;6.89;100.00;102951.81;5018020;28;20198;-66
2023/12/16 01:13:42;;;;;;;6.53;3.88;;;;;;;6.94;100.00;102954.97;5027608;28;20225;-66
2023/12/16 01:16:11;;;;;;;5.10;4.75;;;;;;;6.97;100.00;102949.34;5022850;28;20210;-66
2023/12/16 01:18:40;;;;;;;11.05;4.25;;;;;;;6.95;100.00;102948.59;5025677;28;20307;-65
2023/12/16 01:21:10;;;;;;;4.40;4.10;;;;;;;6.99;100.00;102947.38;5033172;28;20217;-65
2023/12/16 01:23:39;;;;;;;5.05;4.22;;;;;;;6.96;100.00;102947.63;5024251;28;20208;-66
2023/12/16 01:26:08;;;;;;;8.77;4.40;;;;;;;6.94;100.00;102941.50;5035233;28;20260;-65
2023/12/16 01:28:37;;;;;;;5.85;4.82;;;;;;;6.93;100.00;102939.78;5028733;28;20753;-63
2023/12/16 01:31:08;;;;;;;6.90;4.00;;;;;;;6.94;100.00;102941.50;5038211;28;20595;-65
2023/12/16 01:33:36;;;;;;;13.95;6.43;;;;;;;6.99;100.00;102940.16;5033667;28;20688;-62
2023/12/16 01:36:06;;;;;;;5.28;4.47;;;;;;;6.93;100.00;102947.88;5032448;28;20615;-64
2023/12/16 01:38:35;;;;;;;5.63;4.68;;;;;;;6.95;100.00;102943.22;5021144;28;20193;-65
2023/12/16 01:41:04;;;;;;;5.78;4.03;;;;;;;6.98;100.00;102954.59;5026957;28;20204;-65
2023/12/16 01:43:33;;;;;;;5.25;3.65;;;;;;;6.96;100.00;102951.19;5019833;28;20210;-64
2023/12/16 01:46:04;;;;;;;10.70;3.95;;;;;;;7.01;100.00;102948.09;5033694;28;20208;-65
2023/12/16 01:48:36;;;;;;;7.05;4.03;;;;;;;6.92;100.00;102954.25;5018999;28;20197;-64
2023/12/16 01:51:06;;;;;;;4.07;3.03;;;;;;;6.97;100.00;102950.19;5029825;28;20662;-65
2023/12/16 01:53:36;;;;;;;11.63;3.35;;;;;;;6.96;100.00;102963.78;5031183;28;20255;-65
2023/12/16 01:56:06;;;;;;;17.05;5.50;;;;;;;6.92;100.00;102971.25;5027465;28;20253;-63
2023/12/16 01:58:35;;;;;;;13.23;5.07;;;;;;;7.03;100.00;102967.66;5022878;28;20205;-64
2023/12/16 02:01:05;;;;;;;6.78;5.53;;;;;;;6.97;100.00;102963.63;5024424;28;20194;-65
2023/12/16 02:03:37;;;;;;;3.83;3.53;;;;;;;6.89;100.00;102971.50;5029604;28;20259;-65
2023/12/16 02:06:07;;;;;;;5.28;4.88;;;;;;;6.97;100.00;102976.28;5026928;28;20490;-65
2023/12/16 02:08:36;;;;;;;5.50;4.95;;;;;;;6.98;100.00;102975.25;5026717;28;20560;-64
2023/12/16 02:11:09;;;;;;;15.95;6.57;;;;;;;7.12;100.00;102980.34;5034356;28;20670;-65
2023/12/16 02:13:52;;;;;;;6.07;5.45;;;;;;;7.06;100.00;102974.63;4990131;28;20215;-65
2023/12/16 02:16:24;;;;;;;6.15;4.38;;;;;;;7.01;100.00;102968.78;4983452;28;20220;-66
2023/12/16 02:18:55;;;;;;;3.70;2.95;;;;;;;7.02;100.00;102965.13;4999930;28;20683;-66
2023/12/16 02:21:23;;;;;;;3.55;2.65;;;;;;;7.11;100.00;102961.66;4987280;28;20230;-65
2023/12/16 02:23:53;;;;;;;8.32;6.63;;;;;;;7.03;100.00;102946.13;4996207;28;20203;-63
2023/12/16 02:26:22;;;;;;;4.57;3.53;;;;;;;7.06;100.00;102945.88;4991127;28;20316;-64
2023/12/16 02:28:51;;;;;;;2.40;2.20;;;;;;;7.06;100.00;102942.31;4990129;28;20245;-66
2023/12/16 02:31:19;;;;;;;6.75;3.05;;;;;;;7.00;100.00;102946.38;4995930;28;20239;-66
2023/12/16 02:33:48;;;;;;;3.97;3.05;;;;;;;7.00;100.00;102949.06;4984827;28;20240;-65
2023/12/16 02:36:17;;;;;;;3.22;2.92;;;;;;;6.95;100.00;102952.16;4988580;28;20219;-66
2023/12/16 02:38:46;;;;;;;12.45;3.67;;;;;;;6.95;100.00;102962.94;4989700;28;20621;-65
2023/12/16 02:41:16;;;;;;;2.40;2.20;;;;;;;7.03;100.00;102961.41;4990459;28;20703;-65
2023/12/16 02:43:44;;;;;;;8.35;5.72;;;;;;;6.86;100.00;102970.91;4991765;28;20718;-65
2023/12/16 02:46:13;;;;;;;6.28;4.13;;;;;;;6.91;100.00;102963.31;5032804;28;20209;-66
2023/12/16 02:48:42;;;;;;;7.93;4.18;;;;;;;6.89;100.00;102967.97;5022591;28;20556;-66
2023/12/16 02:51:18;;;;;;;9.63;4.68;;;;;;;6.86;100.00;102965.53;5035677;28;20269;-66
2023/12/16 02:53:47;;;;;;;2.22;2.03;;;;;;;6.81;100.00;102959.69;5037208;28;20689;-66
2023/12/16 02:56:17;;;;;;;3.85;3.42;;;;;;;6.79;100.00;102954.41;5024944;28;20246;-64
2023/12/16 02:58:46;;;;;;;6.40;5.80;;;;;;;6.83;100.00;102961.25;5027562;28;20205;-64
2023/12/16 03:01:16;;;;;;;3.17;2.88;;;;;;;6.80;100.00;102961.50;5033158;28;20567;-65
2023/12/16 03:03:44;;;;;;;2.65;1.90;;;;;;;6.81;100.00;102963.22;5031772;28;20192;-61
2023/12/16 03:06:13;;;;;;;5.88;3.00;;;;;;;6.79;100.00;102959.78;5034562;28;20201;-65
2023/12/16 03:08:42;;;;;;;4.38;3.80;;;;;;;6.81;100.00;102965.06;5033571;28;20264;-64
2023/12/16 03:11:10;;;;;;;5.72;4.05;;;;;;;6.81;100.00;102967.75;5034912;28;20200;-65
2023/12/16 03:13:41;;;;;;;10.90;4.88;;;;;;;6.84;100.00;102972.88;5033546;28;20204;-66
2023/12/16 03:16:11;;;;;;;8.02;3.35;;;;;;;6.86;100.00;102968.22;5015813;28;20202;-65
2023/12/16 03:18:40;;;;;;;4.13;2.38;;;;;;;6.89;100.00;102971.50;5027291;28;20193;-64
2023/12/16 03:21:09;;;;;;;4.57;3.70;;;;;;;6.88;100.00;102977.00;5021769;28;20190;-65
2023/12/16 03:23:39;;;;;;;4.03;3.53;;;;;;;6.99;100.00;102971.59;5036750;28;20287;-66
2023/12/16 03:26:08;;;;;;;5.38;3.58;;;;;;;6.99;100.00;102971.59;5029625;28;20213;-65
2023/12/16 03:28:37;;;;;;;14.30;3.47;;;;;;;6.89;100.00;102976.03;5027813;28;20272;-65
2023/12/16 03:31:07;;;;;;;7.22;5.97;;;;;;;6.92;100.00;102991.94;5028931;28;20568;-66
2023/12/16 03:33:36;;;;;;;6.50;5.78;;;;;;;6.95;100.00;103002.44;5027505;28;20564;-65
2023/12/16 03:36:08;;;;;;;4.20;2.88;;;;;;;6.99;100.00;102998.50;5027322;28;20571;-64
2023/12/16 03:38:37;;;;;;;6.25;5.65;;;;;;;7.05;100.00;102998.00;5033620;28;20194;-63
2023/12/16 03:41:06;;;;;;;4.20;3.13;;;;;;;6.97;100.00;102985.16;5021150;28;20194;-64
2023/12/16 03:43:35;;;;;;;8.95;5.40;;;;;;;7.08;100.00;103008.50;5029826;28;20256;-65
2023/12/16 03:46:03;;;;;;;6.60;5.05;;;;;;;7.14;100.00;102999.94;5028730;28;20302;-64
2023/12/16 03:48:34;;;;;;;7.03;6.32;;;;;;;7.07;100.00;103001.41;5028936;28;20188;-64
2023/12/16 03:51:02;;;;;;;9.32;5.28;;;;;;;7.13;100.00;102995.53;5041424;28;20681;-65
2023/12/16 03:53:31;;;;;;;4.47;3.92;;;;;;;7.13;100.00;102982.06;5028893;28;20305;-62
2023/12/16 03:56:00;;;;;;;7.95;4.03;;;;;;;7.06;100.00;102986.25;5031728;28;20308;-64
2023/12/16 03:58:29;;;;;;;9.40;5.18;;;;;;;7.15;100.00;102987.31;5029433;28;20225;-64
2023/12/16 04:00:57;;;;;;;3.08;2.70;;;;;;;7.07;100.00;102979.88;5030319;28;20565;-64
2023/12/16 04:03:26;;;;;;;6.30;5.00;;;;;;;7.05;100.00;102987.25;5035913;28;20185;-64
2023/12/16 04:05:56;;;;;;;5.85;4.93;;;;;;;7.15;100.00;102987.31;5032582;28;20225;-65
2023/12/16 04:08:31;;;;;;;6.97;5.00;;;;;;;7.07;100.00;102987.94;5031436;28;20201;-66
2023/12/16 04:11:00;;;;;;;13.82;4.60;;;;;;;7.15;100.00;102988.19;5028106;28;20209;-65
2023/12/16 04:13:28;;;;;;;9.23;6.25;;;;;;;7.19;100.00;102988.75;5029070;28;20220;-66
2023/12/16 04:15:57;;;;;;;2.30;2.20;;;;;;;7.15;100.00;102988.19;5031275;28;20217;-66
2023/12/16 04:18:26;;;;;;;9.95;8.05;;;;;;;7.13;100.00;102984.75;5031794;28;20300;-64
2023/12/16 04:20:56;;;;;;;8.68;3.45;;;;;;;7.22;100.00;102992.03;5020824;28;20200;-65
2023/12/16 04:23:24;;;;;;;8.93;4.70;;;;;;;7.19;100.00;103000.41;5033044;28;20201;-65
2023/12/16 04:25:53;;;;;;;7.80;4.22;;;;;;;7.09;100.00;102994.06;5035881;28;20292;-64
2023/12/16 04:28:22;;;;;;;7.45;5.82;;;;;;;7.09;100.00;102987.81;5039421;28;20193;-63
2023/12/16 04:30:50;;;;;;;5.10;3.80;;;;;;;7.08;100.00;102986.97;5028500;28;20459;-65
2023/12/16 04:33:19;;;;;;;16.88;5.50;;;;;;;7.06;100.00;102982.72;5032033;28;20194;-65
2023/12/16 04:35:48;;;;;;;11.95;6.88;;;;;;;7.07;100.00;102984.44;5034646;28;20248;-64
2023/12/16 04:38:18;;;;;;;12.48;4.10;;;;;;;7.05;100.00;102987.25;5035890;28;20251;-65
2023/12/16 04:40:47;;;;;;;3.90;3.60;;;;;;;7.05;100.00;102987.25;5041229;28;20200;-65
2023/12/16 04:43:16;;;;;;;6.70;4.25;;;;;;;7.04;100.00;102985.53;5033153;28;20197;-66
2023/12/16 04:45:45;;;;;;;3.63;2.85;;;;;;;6.97;100.00;102982.47;5025915;28;20213;-66
2023/12/16 04:48:14;;;;;;;6.93;5.82;;;;;;;6.94;100.00;102985.44;5028728;28;20185;-65
2023/12/16 04:50:43;;;;;;;4.97;3.88;;;;;;;6.93;100.00;102983.72;5023620;28;20590;-65
2023/12/16 04:53:12;;;;;;;6.70;6.00;;;;;;;6.99;100.00;102976.97;5026393;28;20205;-64
2023/12/16 04:55:42;;;;;;;7.18;4.20;;;;;;;6.95;100.00;102975.53;5031976;28;20693;-66
2023/12/16 04:58:11;;;;;;;8.13;5.38;;;;;;;6.96;100.00;102988.00;5033698;28;20206;-64
2023/12/16 05:00:40;;;;;;;12.68;3.22;;;;;;;6.92;100.00;102991.94;5041510;28;20189;-65
2023/12/16 05:03:08;;;;;;;7.00;5.25;;;;;;;6.98;100.00;102994.09;5033939;28;20205;-64
2023/12/16 05:05:37;;;;;;;20.35;5.00;;;;;;;6.91;100.00;102996.47;5038069;28;20578;-65
2023/12/16 05:08:06;;;;;;;8.40;4.80;;;;;;;6.97;100.00;102995.13;5038110;28;20268;-67
2023/12/16 05:10:35;;;;;;;6.88;5.43;;;;;;;6.93;100.00;102994.50;5029583;28;20216;-64
2023/12/16 05:13:05;;;;;;;7.05;6.32;;;;;;;7.02;100.00;102987.47;5029813;28;20332;-67
2023/12/16 05:15:34;;;;;;;6.60;4.43;;;;;;;6.95;100.00;102997.06;5028289;28;20237;-62
2023/12/16 05:18:03;;;;;;;9.40;5.13;;;;;;;6.88;100.00;102985.09;5031360;28;20625;-64
2023/12/16 05:20:32;;;;;;;6.22;3.80;;;;;;;6.83;100.00;102985.47;5032292;28;20189;-64
2023/12/16 05:23:00;;;;;;;3.70;3.05;;;;;;;6.86;100.00;102992.44;5041918;28;20193;-64
2023/12/16 05:25:30;;;;;;;4.43;4.10;;;;;;;6.77;100.00;102998.59;5032433;28;20304;-63
2023/12/16 05:27:59;;;;;;;6.10;5.57;;;;;;;6.74;100.00;102993.44;5034527;28;20186;-64
2023/12/16 05:30:29;;;;;;;3.05;2.75;;;;;;;6.62;100.00;102992.63;5039100;28;20181;-64
2023/12/16 05:32:58;;;;;;;5.00;3.20;;;;;;;6.58;100.00;102993.00;5038460;28;20197;-65
2023/12/16 05:35:27;;;;;;;7.00;5.55;;;;;;;6.52;100.00;103002.44;5027493;28;20278;-63
2023/12/16 05:37:55;;;;;;;8.93;7.70;;;;;;;6.45;100.00;103011.97;5029518;28;20211;-66
2023/12/16 05:40:24;;;;;;;6.72;3.90;;;;;;;6.49;100.00;103016.97;5026667;28;20193;-65
2023/12/16 05:42:53;;;;;;;5.93;5.43;;;;;;;6.40;100.00;103012.34;5034127;28;20190;-66
2023/12/16 05:45:21;;;;;;;5.82;5.13;;;;;;;6.46;100.00;103017.22;5028266;28;20312;-64
2023/12/16 05:47:51;;;;;;;9.68;5.05;;;;;;;6.39;100.00;103016.00;5028745;28;20185;-65
2023/12/16 05:50:20;;;;;;;6.13;5.60;;;;;;;6.41;100.00;103027.50;5032439;28;20571;-65
2023/12/16 05:52:49;;;;;;;5.10;3.38;;;;;;;6.44;100.00;103019.19;5021235;28;20200;-65
2023/12/16 05:55:18;;;;;;;9.48;7.03;;;;;;;6.39;100.00;103021.38;5038129;28;20213;-66
2023/12/16 05:57:46;;;;;;;5.18;4.65;;;;;;;6.57;100.00;103023.59;5028852;28;20700;-67
2023/12/16 06:00:16;;;;;;;6.15;5.65;;;;;;;6.57;100.00;103023.59;5034123;28;20201;-65
2023/12/16 06:02:45;;;;;;;2.67;2.47;;;;;;;6.53;100.00;103021.13;5025773;28;20194;-65
2023/12/16 06:05:15;;;;;;;14.93;4.47;;;;;;;6.62;100.00;103033.00;5026322;28;20213;-63
2023/12/16 06:07:43;;;;;;;5.07;4.22;;;;;;;6.68;100.00;103037.84;5027134;28;20247;-65
2023/12/16 06:10:13;;;;;;;11.57;6.50;;;;;;;6.73;100.00;103046.41;5036224;28;20193;-64
2023/12/16 06:12:42;;;;;;;13.82;5.03;;;;;;;6.80;100.00;103046.78;5025878;28;20610;-64
2023/12/16 06:15:11;;;;;;;5.10;4.70;;;;;;;6.72;100.00;103038.47;5027849;28;20233;-63
2023/12/16 06:17:39;;;;;;;4.75;3.08;;;;;;;6.78;100.00;103037.97;5026333;28;20186;-64
2023/12/16 06:20:10;;;;;;;4.82;3.28;;;;;;;6.82;100.00;103042.13;5042379;28;20270;-65
2023/12/16 06:22:40;;;;;;;4.65;3.90;;;;;;;6.83;100.00;103041.13;5030437;28;20204;-63
2023/12/16 06:25:09;;;;;;;4.65;4.00;;;;;;;6.83;100.00;103051.91;5038217;28;20250;-64
2023/12/16 06:27:40;;;;;;;6.85;5.53;;;;;;;6.83;100.00;103050.06;5028108;28;20579;-65
2023/12/16 06:30:11;;;;;;;2.53;2.08;;;;;;;6.89;100.00;103035.25;5023520;28;20193;-65
2023/12/16 06:32:40;;;;;;;4.93;3.40;;;;;;;6.87;100.00;103031.84;5024589;28;20565;-65
2023/12/16 06:35:09;;;;;;;4.10;3.72;;;;;;;6.86;100.00;103008.59;5024164;28;20241;-64
2023/12/16 06:37:39;;;;;;;4.32;3.40;;;;;;;6.91;100.00;103007.25;5026113;28;20228;-66
2023/12/16 06:40:09;;;;;;;4.95;3.70;;;;;;;6.86;100.00;103008.59;5034366;28;20196;-65
2023/12/16 06:42:38;;;;;;;3.78;2.58;;;;;;;6.89;100.00;103002.94;5033637;28;20185;-64
2023/12/16 06:45:08;;;;;;;2.88;2.45;;;;;;;6.91;100.00;103001.00;5042396;28;20216;-64
2023/12/16 06:47:40;;;;;;;4.53;2.33;;;;;;;6.94;100.00;103006.13;5027145;28;20193;-63
2023/12/16 06:50:10;;;;;;;6.88;6.20;;;;;;;6.88;100.00;103023.63;5022712;28;20202;-64
2023/12/16 06:52:40;;;;;;;7.63;6.63;;;;;;;6.88;100.00;103036.22;5028851;28;20244;-65
2023/12/16 06:55:09;;;;;;;3.90;3.53;;;;;;;6.90;100.00;103039.66;5026028;28;20232;-64
2023/12/16 06:57:38;;;;;;;4.53;2.47;;;;;;;6.93;100.00;103036.69;5032676;28;20605;-65
2023/12/16 07:00:09;;;;;;;3.05;2.72;;;;;;;6.93;100.00;103036.69;5030285;28;20201;-64
2023/12/16 07:02:41;;;;;;;13.25;3.42;;;;;;;7.02;100.00;103035.94;5029609;28;20313;-65
2023/12/16 07:05:11;;;;;;;6.50;4.88;;;;;;;7.07;100.00;103024.81;5029151;28;20277;-64
2023/12/16 07:07:41;;;;;;;2.85;2.65;;;;;;;7.09;100.00;103034.47;5029906;28;20219;-66
2023/12/16 07:10:10;;;;;;;6.18;3.10;;;;;;;7.07;100.00;103033.72;5028505;28;20727;-64
2023/12/16 07:12:39;;;;;;;5.90;4.07;;;;;;;7.10;100.00;103035.31;5024555;28;20205;-64
2023/12/16 07:15:10;;;;;;;3.97;3.70;;;;;;;7.13;100.00;103038.59;5028748;28;20629;-64
2023/12/16 07:17:40;;;;;;;4.13;3.83;;;;;;;7.12;100.00;103047.66;5032095;28;20199;-65
2023/12/16 07:20:10;;;;;;;7.63;2.33;;;;;;;7.13;100.00;103043.13;5027065;28;20232;-60
2023/12/16 07:22:40;;;;;;;4.95;4.40;;;;;;;7.17;100.00;103029.28;5029562;28;20210;-66
2023/12/16 07:25:09;;;;;;;4.70;4.38;;;;;;;7.22;100.00;103036.97;5026027;28;20224;-65
2023/12/16 07:27:38;;;;;;;3.28;2.53;;;;;;;7.16;100.00;103030.28;5025083;28;20201;-63
2023/12/16 07:30:08;;;;;;;3.42;3.05;;;;;;;7.19;100.00;103032.72;5029088;28;20224;-66
2023/12/16 07:32:37;;;;;;;3.60;3.35;;;;;;;7.18;100.00;103024.75;5029517;28;20201;-66
2023/12/16 07:35:08;;;;;;;5.60;3.20;;;;;;;7.16;100.00;103032.13;5027708;28;20209;-64
2023/12/16 07:37:37;;;;;;;2.58;2.38;;;;;;;7.22;100.00;103032.44;5032254;28;20665;-65
2023/12/16 07:40:10;;;;;;;2.72;2.50;;;;;;;7.33;100.00;103039.63;5032727;28;20685;-65
2023/12/16 07:42:40;;;;;;;12.60;4.15;;;;;;;7.22;100.00;103037.81;5026544;28;20657;-65
2023/12/16 07:45:09;;;;;;;1.52;1.42;;;;;;;7.24;100.00;103035.03;5021363;28;20650;-63
2023/12/16 07:47:39;;;;;;;3.33;2.63;;;;;;;7.26;100.00;103043.84;5024639;28;20197;-62
2023/12/16 07:50:10;;;;;;;3.50;2.58;;;;;;;7.31;100.00;103045.13;5032034;28;20217;-62
2023/12/16 07:52:39;;;;;;;1.90;1.58;;;;;;;7.35;100.00;103043.06;5031102;28;20645;-64
2023/12/16 07:55:09;;;;;;;3.13;2.70;;;;;;;7.32;100.00;103044.16;5018509;28;20213;-66
2023/12/16 07:57:38;;;;;;;7.78;5.25;;;;;;;7.29;100.00;103048.94;5021786;28;20289;-64
2023/12/16 08:00:09;;;;;;;2.75;2.05;;;;;;;7.36;100.00;103056.38;5030759;28;20833;-66
2023/12/16 08:02:38;;;;;;;2.35;1.58;;;;;;;7.45;100.00;103060.16;5027282;28;20190;-65
2023/12/16 08:05:08;;;;;;;2.45;2.25;;;;;;;7.48;100.00;103062.59;5020157;28;20288;-64
2023/12/16 08:07:36;;;;;;;5.78;2.70;;;;;;;7.48;100.00;103070.66;5028240;28;20189;-66
2023/12/16 08:10:08;;;;;;;4.63;2.58;;;;;;;7.48;100.00;103075.19;5028838;28;20201;-65
2023/12/16 08:12:37;;;;;;;2.58;2.35;;;;;;;7.45;100.00;103072.78;5027751;28;20201;-66
2023/12/16 08:15:06;;;;;;;4.20;3.83;;;;;;;7.43;100.00;103078.28;5023136;28;20743;-65
2023/12/16 08:17:36;;;;;;;3.72;2.80;;;;;;;7.61;100.00;103086.66;5032403;28;20194;-66
2023/12/16 08:20:05;;;;;;;2.92;1.42;;;;;;;7.43;100.00;103083.66;5024489;28;20205;-65
2023/12/16 08:22:35;;;;;;;8.02;4.10;;;;;;;7.55;100.00;103082.63;5022575;28;20202;-66
2023/12/16 08:25:04;;;;;;;6.13;3.17;;;;;;;7.58;100.00;103076.13;5027535;28;20304;-63
2023/12/16 08:27:34;;;;;;;2.85;1.98;;;;;;;7.51;100.00;103069.53;5026594;28;20288;-65
2023/12/16 08:30:03;;;;;;;4.47;2.22;;;;;;;7.63;100.00;103079.28;5028697;28;20670;-65
2023/12/16 08:32:32;;;;;;;1.58;1.48;;;;;;;7.60;100.00;103075.00;5019460;28;20217;-65
2023/12/16 08:35:01;;;;;;;3.17;2.70;;;;;;;7.61;100.00;103070.47;5031277;28;20344;-63
2023/12/16 08:37:30;;;;;;;6.47;4.70;;;;;;;7.79;100.00;103068.94;5038184;28;20194;-65
2023/12/16 08:39:59;;;;;;;3.15;2.13;;;;;;;7.71;100.00;103066.00;5028723;28;20574;-65
2023/12/16 08:42:27;;;;;;;2.63;2.25;;;;;;;7.74;100.00;103065.78;5024840;28;20197;-62
2023/12/16 08:44:57;;;;;;;2.70;2.50;;;;;;;7.80;100.00;103074.16;5030182;28;20713;-65
2023/12/16 08:47:26;;;;;;;2.47;1.77;;;;;;;7.79;100.00;103069.75;5031282;28;20197;-64
2023/12/16 08:49:55;;;;;;;4.13;2.13;;;;;;;7.79;100.00;103061.66;5035422;28;20268;-64
2023/12/16 08:52:26;;;;;;;6.53;3.78;;;;;;;7.86;100.00;103062.00;5033715;28;20208;-64
2023/12/16 08:54:55;;;;;;;2.85;2.03;;;;;;;7.98;100.00;103063.66;5028545;28;20248;-65
2023/12/16 08:57:24;;;;;;;2.47;1.88;;;;;;;7.92;100.00;103071.41;5034278;28;20190;-64
2023/12/16 08:59:52;;;;;;;4.72;2.25;;;;;;;7.99;100.00;103070.75;5032394;28;20214;-65
2023/12/16 09:02:23;;;;;;;2.22;1.60;;;;;;;8.07;99.90;103068.25;5033334;28;20194;-66
2023/12/16 09:04:52;;;;;;;1.65;1.02;;;;;;;7.99;99.34;103057.25;5025077;28;20225;-63
2023/12/16 09:07:20;;;;;;;10.63;3.55;;;;;;;7.98;99.72;103060.09;5022086;28;20674;-63
2023/12/16 09:09:49;;;;;;;5.07;3.03;;;;;;;8.13;98.07;103050.69;5022157;28;20193;-64
2023/12/16 09:12:18;;;;;;;5.47;2.25;;;;;;;8.07;97.77;103052.06;5027895;28;20684;-64
2023/12/16 09:14:46;;;;;;;8.23;3.53;;;;;;;8.05;96.99;103053.19;5031558;28;20673;-65
2023/12/16 09:17:15;;;;;;;3.10;1.70;;;;;;;8.08;97.57;103053.78;5033486;28;20189;-63
2023/12/16 09:19:45;;;;;;;4.88;3.30;;;;;;;8.22;97.17;103050.75;5029312;28;20304;-64
2023/12/16 09:22:16;;;;;;;4.97;4.47;;;;;;;8.20;95.46;103052.69;5024324;28;20596;-65
2023/12/16 09:24:45;;;;;;;2.00;1.23;;;;;;;8.36;94.40;103051.41;5019808;28;20240;-63
2023/12/16 09:27:13;;;;;;;15.25;2.60;;;;;;;8.36;94.59;103046.84;5028431;28;20212;-62
2023/12/16 09:29:42;;;;;;;4.30;2.10;;;;;;;8.30;94.64;103047.38;5031985;28;20251;-65
2023/12/16 09:32:11;;;;;;;1.80;1.50;;;;;;;8.28;93.83;103050.19;5032968;28;20217;-62
2023/12/16 09:34:41;;;;;;;1.67;1.58;;;;;;;8.38;93.32;103054.78;5039634;28;20780;-63
2023/12/16 09:37:12;;;;;;;3.83;1.70;;;;;;;8.45;93.32;103037.94;5030706;28;20335;-64
2023/12/16 09:39:41;;;;;;;4.05;2.83;;;;;;;8.44;91.84;103038.94;5037195;28;20259;-65
2023/12/16 09:42:11;;;;;;;4.03;2.40;;;;;;;8.51;92.10;103041.94;5028598;28;20196;-64
2023/12/16 09:44:42;;;;;;;2.35;1.75;;;;;;;8.49;90.83;103057.41;5038409;28;20300;-64
2023/12/16 09:47:13;;;;;;;1.45;1.35;;;;;;;8.53;91.17;103050.72;5030638;28;20194;-65
2023/12/16 09:49:44;;;;;;;2.30;1.80;;;;;;;8.62;91.37;103064.25;5039040;28;20231;-65
2023/12/16 09:52:15;;;;;;;2.08;1.33;;;;;;;8.73;90.01;103064.16;5028259;28;20194;-65
2023/12/16 09:54:43;;;;;;;2.00;1.90;;;;;;;8.76;89.94;103065.75;5028412;28;20300;-64
2023/12/16 09:57:14;;;;;;;3.65;1.65;;;;;;;8.66;89.32;103064.88;5040141;28;20189;-65
2023/12/16 09:59:44;;;;;;;3.65;1.85;;;;;;;8.68;89.32;103070.97;5031568;28;20263;-65
2023/12/16 10:02:26;;;;;;;2.22;1.25;;;;;;;8.71;89.61;103068.84;5031440;28;20243;-67
2023/12/16 10:04:57;;;;;;;1.00;0.80;;;;;;;8.80;88.56;103064.47;5034145;28;20209;-65
2023/12/16 10:07:27;;;;;;;3.17;2.90;;;;;;;8.78;88.04;103050.25;5032321;28;20197;-62
2023/12/16 10:09:56;;;;;;;2.95;1.92;;;;;;;8.68;88.07;103042.13;5020126;28;20246;-64
2023/12/16 10:12:32;;;;;;;3.15;2.85;;;;;;;8.58;88.69;103043.09;5030960;28;20678;-65
2023/12/16 10:15:01;;;;;;;8.48;1.25;;;;;;;8.28;89.06;103043.91;5030225;28;20205;-65
2023/12/16 10:17:30;;;;;;;2.63;1.80;;;;;;;8.10;89.99;103023.97;5036235;28;20247;-65
2023/12/16 10:19:58;;;;;;;0.98;0.88;;;;;;;8.14;90.76;103003.81;5038129;28;20205;-66
2023/12/16 10:22:29;;;;;;;1.98;1.83;;;;;;;8.12;91.10;103012.06;5047275;28;20243;-62
2023/12/16 10:24:57;;;;;;;1.92;1.83;;;;;;;8.13;90.94;103007.53;5027422;28;20270;-66
2023/12/16 10:27:28;;;;;;;1.20;1.10;;;;;;;8.15;90.51;103008.25;5035052;28;20609;-64
2023/12/16 10:29:58;;;;;;;5.57;1.92;;;;;;;8.22;90.41;103002.19;5042236;28;20194;-63
2023/12/16 10:32:40;;;;;;;1.52;1.42;;;;;;;8.40;89.93;103013.22;5029623;28;20673;-65
2023/12/16 10:35:09;;;;;;;2.50;2.30;;;;;;;8.56;88.44;103026.19;5022589;28;20626;-65
2023/12/16 10:37:49;;;;;;;2.20;1.48;;;;;;;8.68;88.58;103030.47;5025983;28;20678;-64
2023/12/16 10:40:24;;;;;;;4.85;1.92;;;;;;;8.79;87.18;103022.28;5025629;28;20690;-63
2023/12/16 10:42:53;;;;;;;3.47;2.05;;;;;;;8.70;87.01;103012.31;5032168;28;20208;-65
2023/12/16 10:45:22;;;;;;;2.22;1.25;;;;;;;8.87;86.13;103003.50;5028867;28;20247;-64
2023/12/16 10:47:55;;;;;;;1.27;0.80;;;;;;;8.92;87.16;103017.44;5031935;28;20193;-63
2023/12/16 10:50:26;;;;;;;1.33;1.10;;;;;;;9.09;85.85;103007.81;5024132;28;20562;-66
2023/12/16 10:53:00;;;;;;;4.90;1.73;;;;;;;9.16;84.42;103012.50;5033733;28;20221;-65
2023/12/16 10:55:31;;;;;;;2.40;1.05;;;;;;;9.01;86.08;103015.75;5034292;28;20569;-64
2023/12/16 10:58:13;;;;;;;1.75;1.65;;;;;;;8.91;84.78;103009.47;5030223;28;20193;-64
2023/12/16 11:00:45;;;;;;;1.87;0.93;;;;;;;9.01;84.51;103011.19;5033156;28;20282;-64
2023/12/16 11:03:23;;;;;;;1.55;1.30;;;;;;;9.21;84.58;103000.41;5030289;28;20432;-60
2023/12/16 11:05:57;;;;;;;2.45;1.88;;;;;;;9.24;84.38;102989.34;5028971;28;20213;-63
2023/12/16 11:08:29;;;;;;;3.88;1.50;;;;;;;9.44;83.44;102985.63;5022567;28;20198;-63
2023/12/16 11:10:58;;;;;;;1.17;0.95;;;;;;;9.61;83.01;102979.47;5026597;28;20510;-61
2023/12/16 11:13:28;;;;;;;1.45;1.25;;;;;;;9.65;81.93;102983.59;5028471;28;20684;-65
2023/12/16 11:16:03;;;;;;;1.43;0.97;;;;;;;9.62;81.63;102973.06;5023481;28;20698;-64
2023/12/16 11:18:34;;;;;;;5.10;1.77;;;;;;;9.61;82.56;102976.75;5033355;28;20428;-64
2023/12/16 11:21:07;;;;;;;1.10;0.73;;;;;;;9.52;82.19;102980.34;5030427;28;20903;-65
2023/12/16 11:23:45;;;;;;;1.23;0.93;;;;;;;9.34;82.90;102976.69;5030206;28;20844;-64
2023/12/16 11:26:15;;;;;;;1.00;0.70;;;;;;;9.50;83.11;102972.38;5025710;28;20456;-64
2023/12/16 11:28:44;;;;;;;2.33;1.60;;;;;;;9.58;83.68;102977.06;5024700;28;20427;-66
2023/12/16 11:31:16;;;;;;;2.90;2.40;;;;;;;9.32;82.61;102971.41;5031485;28;20503;-66
2023/12/16 11:33:45;;;;;;;1.10;0.90;;;;;;;9.40;82.62;102967.97;5025507;28;20523;-65
2023/12/16 11:36:14;;;;;;;1.67;0.90;;;;;;;9.34;83.62;102963.16;5025418;28;20451;-64
2023/12/16 11:38:46;;;;;;;1.60;1.27;;;;;;;9.37;82.46;102957.47;5031075;28;20497;-64